Impacts TAF Board INFO
FOR SITUATIONAL AWARENESS. NOT TO BE USED FOR FLIGHT PLANNING PURPOSES.
IDs:

KNEW - New Orleans/Lakefron, LA, US

Issued at 0819 UTC 17 Aug 2018
Updated at 0931 UTC 17 Aug 2018
Potential Impact None Slight Moderate High
Time<<17/22Z 17/23Z 18/00Z 18/01Z 18/02Z 18/03Z 18/04Z 18/05Z 18/06Z 18/07Z 18/08Z 18/09Z 18/10Z>>
Type PRVL PRVL PRVL PRVL PRVL PRVL PRVL PRVL
VIS >6 >6 >6 >6 >6 >6 >6 >6
CIG 200 200 200 140 140 140 140 140
Cover BKN BKN BKN BKN BKN BKN BKN BKN
FltCat VFR VFR VFR VFR VFR VFR VFR VFR
WX VCTS VCTS VCTS -- -- -- -- --
WDir 180 180 180 170 170 170 170 170
WSpd 5 5 5 8 8 8 8 8
WGst -- -- -- -- -- -- -- --

Raw TAF
KNEW 170819Z 1708/1806 17006KT P6SM VCSH SCT025
  FM171200 24005KT P6SM VCSH SCT025 BKN250
  TEMPO 1712/1716 3SM TSRA SCT025CB
  FM171600 18005KT P6SM VCTS SCT030CB BKN200
  FM180100 17008KT P6SM BKN140


METAR Board

FOR SITUATIONAL AWARENESS. NOT TO BE USED FOR FLIGHT PLANNING PURPOSES.